createdAt,value
2018-07-10T00:02:22.243Z,101322.38
2018-07-10T00:04:42.361Z,101311.31
2018-07-10T00:09:06.287Z,101308.36
2018-07-10T00:11:32.688Z,101294.96
2018-07-10T00:13:37.378Z,101318.59
2018-07-10T00:15:42.245Z,101314.67
2018-07-10T00:17:47.029Z,101312.19
2018-07-10T00:19:51.903Z,101307.73
2018-07-10T00:21:56.649Z,101295.70
2018-07-10T00:24:01.514Z,101287.72
2018-07-10T00:26:06.220Z,101305.21
2018-07-10T00:28:11.395Z,101303.66
2018-07-10T00:30:16.082Z,101309.51
2018-07-10T00:32:20.869Z,101303.59
2018-07-10T00:34:25.659Z,101313.66
2018-07-10T00:36:29.972Z,101317.05
2018-07-10T00:38:51.127Z,101306.81
2018-07-10T00:40:55.889Z,101263.97
2018-07-10T00:43:02.295Z,101311.89
2018-07-10T00:45:07.046Z,101311.98
2018-07-10T00:47:12.086Z,101303.54
2018-07-10T00:49:16.921Z,101302.19
2018-07-10T00:51:22.629Z,101305.83
2018-07-10T00:53:27.457Z,101302.59
2018-07-10T00:55:32.658Z,101302.30
2018-07-10T00:57:37.682Z,101304.59
2018-07-10T00:59:42.491Z,101298.02
2018-07-10T01:01:47.337Z,101295.99
2018-07-10T01:03:52.211Z,101294.11
2018-07-10T01:05:57.006Z,101295.31
2018-07-10T01:08:01.810Z,101295.02
2018-07-10T01:10:06.478Z,101280.09
2018-07-10T01:12:11.206Z,101296.20
2018-07-10T01:14:16.015Z,101296.70
2018-07-10T01:16:34.395Z,101294.67
2018-07-10T01:18:44.652Z,101296.44
2018-07-10T01:20:49.621Z,101299.90
2018-07-10T01:22:54.957Z,101297.14
2018-07-10T01:24:59.888Z,101304.24
2018-07-10T01:27:04.794Z,101303.94
2018-07-10T01:29:21.209Z,101303.16
2018-07-10T01:31:26.209Z,101316.64
2018-07-10T01:33:31.174Z,101263.97
2018-07-10T01:35:35.955Z,101298.41
2018-07-10T01:37:40.775Z,101298.66
2018-07-10T01:39:45.658Z,101295.38
2018-07-10T01:41:50.478Z,101299.47
2018-07-10T01:43:55.440Z,101297.53
2018-07-10T01:46:00.369Z,101296.79
2018-07-10T01:48:05.270Z,101284.27
2018-07-10T01:50:10.066Z,101280.63
2018-07-10T01:52:14.903Z,101280.33
2018-07-10T01:54:19.752Z,101280.94
2018-07-10T01:56:24.713Z,101279.22
2018-07-10T01:58:29.818Z,101278.02
2018-07-10T02:00:42.543Z,101276.05
2018-07-10T02:02:47.411Z,101277.55
2018-07-10T02:04:53.779Z,101272.83
2018-07-10T02:06:58.522Z,101278.41
2018-07-10T02:09:03.431Z,101280.63
2018-07-10T02:11:08.367Z,101278.86
2018-07-10T02:13:13.147Z,101268.83
2018-07-10T02:15:18.047Z,101264.25
2018-07-10T02:17:22.839Z,101266.23
2018-07-10T02:19:27.688Z,101271.70
2018-07-10T02:21:32.796Z,101264.63
2018-07-10T02:23:41.772Z,101271.51
2018-07-10T02:25:46.582Z,101264.16
2018-07-10T02:29:56.098Z,101271.22
2018-07-10T02:32:00.883Z,101270.03
2018-07-10T02:34:05.646Z,101267.52
2018-07-10T02:36:10.453Z,101263.80
2018-07-10T02:38:15.537Z,101261.63
2018-07-10T02:40:20.346Z,101262.20
2018-07-10T02:42:25.206Z,101266.03
2018-07-10T02:44:30.015Z,101266.23
2018-07-10T02:46:37.325Z,101268.55
2018-07-10T02:48:42.211Z,101264.37
2018-07-10T02:50:49.561Z,101233.11
2018-07-10T02:52:54.408Z,101267.23
2018-07-10T02:54:59.678Z,101241.95
2018-07-10T02:57:06.444Z,101258.27
2018-07-10T02:59:11.893Z,101263.91
2018-07-10T03:01:16.874Z,101264.25
2018-07-10T03:03:21.753Z,101253.24
2018-07-10T03:05:26.883Z,101256.63
2018-07-10T03:07:33.907Z,101257.27
2018-07-10T03:09:38.722Z,101252.95
2018-07-10T03:11:43.478Z,101251.46
2018-07-10T03:13:48.341Z,101261.95
2018-07-10T03:15:53.073Z,101252.61
2018-07-10T03:17:58.066Z,101255.18
2018-07-10T03:20:04.739Z,101256.79
2018-07-10T03:22:09.592Z,101253.30
2018-07-10T03:24:14.548Z,101255.76
2018-07-10T03:26:19.410Z,101259.31
2018-07-10T03:28:24.283Z,101251.95
2018-07-10T03:30:29.078Z,101248.30
2018-07-10T03:32:33.868Z,101249.53
2018-07-10T03:34:39.190Z,101251.69
2018-07-10T03:36:43.910Z,101252.89
2018-07-10T03:38:49.198Z,101241.66
2018-07-10T03:40:53.985Z,101237.17
2018-07-10T03:42:58.861Z,101244.03
2018-07-10T03:45:03.806Z,101231.61
2018-07-10T03:47:08.776Z,101256.77
2018-07-10T03:49:13.814Z,101256.70
2018-07-10T03:51:18.968Z,101235.12
2018-07-10T03:53:24.498Z,101206.59
2018-07-10T03:55:29.274Z,101245.03
2018-07-10T03:57:34.038Z,101245.10
2018-07-10T03:59:46.809Z,101245.88
2018-07-10T04:01:51.622Z,101245.38
2018-07-10T04:03:56.460Z,101252.65
2018-07-10T04:06:02.330Z,101204.80
2018-07-10T04:08:08.485Z,101246.13
2018-07-10T04:10:15.050Z,101248.30
2018-07-10T04:12:19.850Z,101234.38
2018-07-10T04:14:26.158Z,101243.24
2018-07-10T04:16:31.538Z,101255.76
2018-07-10T04:18:37.493Z,101244.38
2018-07-10T04:20:55.122Z,101256.58
2018-07-10T04:23:00.069Z,101256.25
2018-07-10T04:25:05.244Z,101260.45
2018-07-10T04:27:30.579Z,101258.52
2018-07-10T04:29:56.314Z,101253.41
2018-07-10T04:32:01.982Z,101260.37
2018-07-10T04:34:07.774Z,101247.20
2018-07-10T04:36:12.757Z,101256.23
2018-07-10T04:38:25.675Z,101247.84
2018-07-10T04:40:33.495Z,101210.80
2018-07-10T04:42:48.154Z,101246.41
2018-07-10T04:45:04.834Z,101253.61
2018-07-10T04:47:19.078Z,101253.96
2018-07-10T04:49:36.702Z,101251.02
2018-07-10T04:51:51.816Z,101247.16
2018-07-10T04:54:03.702Z,101247.53
2018-07-10T04:56:08.573Z,101246.84
2018-07-10T04:58:20.548Z,101244.84
2018-07-10T05:00:26.974Z,101255.30
2018-07-10T05:02:31.892Z,101161.98
2018-07-10T05:04:36.962Z,101245.30
2018-07-10T05:06:41.880Z,101243.41
2018-07-10T05:08:46.878Z,101240.94
2018-07-10T05:10:53.486Z,101237.88
2018-07-10T05:12:58.553Z,101236.64
2018-07-10T05:15:03.395Z,101243.55
2018-07-10T05:17:08.721Z,101235.36
2018-07-10T05:19:13.705Z,101234.19
2018-07-10T05:21:18.940Z,101232.88
2018-07-10T05:23:24.170Z,101203.02
2018-07-10T05:25:29.154Z,101222.45
2018-07-10T05:27:34.200Z,101229.70
2018-07-10T05:29:39.319Z,101236.86
2018-07-10T05:31:44.484Z,101231.94
2018-07-10T05:33:51.498Z,101234.70
2018-07-10T05:35:56.967Z,101230.91
2018-07-10T05:38:05.335Z,101211.95
2018-07-10T05:40:12.821Z,101231.44
2018-07-10T05:42:17.775Z,101221.40
2018-07-10T05:46:31.924Z,101221.77
2018-07-10T05:48:37.628Z,101223.02
2018-07-10T05:50:42.663Z,101215.61
2018-07-10T05:52:48.527Z,101215.64
2018-07-10T05:54:53.547Z,101202.59
2018-07-10T05:56:58.524Z,101201.92
2018-07-10T05:59:05.458Z,101211.55
2018-07-10T06:01:10.378Z,101188.60
2018-07-10T06:03:15.319Z,101207.56
2018-07-10T06:05:20.330Z,101187.58
2018-07-10T06:07:25.178Z,101165.94
2018-07-10T06:09:30.228Z,101196.37
2018-07-10T06:13:39.679Z,101190.95
2018-07-10T06:15:44.571Z,101194.05
2018-07-10T06:17:50.628Z,101196.48
2018-07-10T06:19:55.495Z,101186.38
2018-07-10T06:22:00.484Z,101191.39
2018-07-10T06:24:11.474Z,101189.92
2018-07-10T06:26:16.593Z,101179.95
2018-07-10T06:28:29.257Z,101188.08
2018-07-10T06:30:34.191Z,101193.69
2018-07-10T06:34:49.568Z,101194.81
2018-07-10T06:37:04.521Z,101194.05
2018-07-10T06:39:12.343Z,101190.70
2018-07-10T06:41:17.728Z,101185.38
2018-07-10T06:44:27.440Z,101193.91
2018-07-10T06:46:42.086Z,101185.58
2018-07-10T06:48:51.162Z,101186.51
2018-07-10T06:50:56.103Z,101182.34
2018-07-10T06:53:02.845Z,101190.95
2018-07-10T06:55:09.823Z,101160.77
2018-07-10T06:57:14.753Z,101174.45
2018-07-10T06:59:19.910Z,101181.73
2018-07-10T07:01:25.056Z,101184.90
2018-07-10T07:03:30.587Z,101191.25
2018-07-10T07:05:35.476Z,101147.03
2018-07-10T07:07:41.053Z,101185.50
2018-07-10T07:09:45.933Z,101182.78
2018-07-10T07:11:50.883Z,101188.61
2018-07-10T07:13:55.818Z,101186.85
2018-07-10T07:16:00.640Z,101185.34
2018-07-10T07:18:05.511Z,101190.08
2018-07-10T07:20:10.496Z,101175.50
2018-07-10T07:22:15.315Z,101186.80
2018-07-10T07:24:20.647Z,101179.84
2018-07-10T07:26:25.514Z,101178.23
2018-07-10T07:28:30.683Z,101187.17
2018-07-10T07:30:35.731Z,101185.22
2018-07-10T07:32:40.789Z,101186.02
2018-07-10T07:34:45.713Z,101180.95
2018-07-10T07:36:50.782Z,101180.44
2018-07-10T07:38:55.734Z,101185.11
2018-07-10T07:41:00.734Z,101180.05
2018-07-10T07:43:05.601Z,101186.76
2018-07-10T07:45:11.106Z,101172.80
2018-07-10T07:47:16.061Z,101165.02
2018-07-10T07:49:21.084Z,101173.52
2018-07-10T07:51:25.952Z,101175.75
2018-07-10T07:53:31.396Z,101157.36
2018-07-10T07:55:36.583Z,101156.72
2018-07-10T07:57:41.510Z,101155.97
2018-07-10T07:59:46.503Z,101145.67
2018-07-10T08:01:51.910Z,101152.14
2018-07-10T08:03:56.898Z,101152.05
2018-07-10T08:06:01.954Z,101156.31
2018-07-10T08:08:06.928Z,101132.28
2018-07-10T08:10:11.781Z,101146.16
2018-07-10T08:12:16.607Z,101155.36
2018-07-10T08:14:21.529Z,101149.64
2018-07-10T08:16:26.362Z,101157.36
2018-07-10T08:18:31.359Z,101142.36
2018-07-10T08:20:36.295Z,101151.16
2018-07-10T08:22:41.217Z,101149.28
2018-07-10T08:24:46.464Z,101125.66
2018-07-10T08:26:55.446Z,101137.88
2018-07-10T08:29:00.969Z,101150.62
2018-07-10T08:31:05.991Z,101140.73
2018-07-10T08:33:11.197Z,101140.64
2018-07-10T08:35:16.180Z,101138.20
2018-07-10T08:37:21.206Z,101123.30
2018-07-10T08:39:29.188Z,101124.11
2018-07-10T08:41:45.367Z,101115.84
2018-07-10T08:43:50.738Z,101114.36
2018-07-10T08:45:55.752Z,101082.85
2018-07-10T08:48:02.671Z,101112.74
2018-07-10T08:50:07.612Z,101113.02
2018-07-10T08:52:13.435Z,101111.34
2018-07-10T08:54:20.264Z,101080.45
2018-07-10T08:56:25.484Z,101124.34
2018-07-10T08:58:30.867Z,101121.61
2018-07-10T09:00:35.717Z,101118.37
2018-07-10T09:02:40.885Z,101103.36
2018-07-10T09:04:45.729Z,101125.81
2018-07-10T09:06:50.635Z,101128.13
2018-07-10T09:08:55.623Z,101120.92
2018-07-10T09:11:01.452Z,101115.14
2018-07-10T09:13:06.372Z,101114.34
2018-07-10T09:15:11.362Z,101105.48
2018-07-10T09:17:16.134Z,101120.88
2018-07-10T09:19:27.450Z,101066.97
2018-07-10T09:21:32.262Z,101123.13
2018-07-10T09:23:37.113Z,101119.18
2018-07-10T09:25:42.092Z,101122.47
2018-07-10T09:27:47.117Z,101129.86
2018-07-10T09:29:52.220Z,101103.02
2018-07-10T09:31:57.887Z,101108.47
2018-07-10T09:34:03.213Z,101109.20
2018-07-10T09:36:08.216Z,101115.91
2018-07-10T09:38:13.236Z,101113.52
2018-07-10T09:40:20.129Z,101112.74
2018-07-10T09:42:25.180Z,101090.87
2018-07-10T09:44:31.020Z,101115.49
2018-07-10T09:46:36.155Z,101111.56
2018-07-10T09:48:40.980Z,101113.28
2018-07-10T09:50:46.381Z,101109.84
2018-07-10T09:52:51.392Z,101104.37
2018-07-10T09:54:56.404Z,101104.84
2018-07-10T09:57:02.527Z,101100.03
2018-07-10T09:59:07.740Z,101104.19
2018-07-10T10:01:17.766Z,101106.36
2018-07-10T10:03:24.615Z,101067.52
2018-07-10T10:05:36.686Z,101093.66
2018-07-10T10:07:41.534Z,101096.57
2018-07-10T10:09:46.400Z,101084.23
2018-07-10T10:11:51.376Z,101082.24
2018-07-10T10:13:56.286Z,101084.10
2018-07-10T10:16:01.153Z,101074.52
2018-07-10T10:18:08.277Z,101083.54
2018-07-10T10:20:13.134Z,101024.02
2018-07-10T10:22:18.081Z,101016.66
2018-07-10T10:24:22.919Z,101075.51
2018-07-10T10:26:29.036Z,101072.36
2018-07-10T10:28:34.176Z,101074.28
2018-07-10T10:30:40.251Z,101043.91
2018-07-10T10:32:45.068Z,101066.13
2018-07-10T10:34:49.845Z,101061.84
2018-07-10T10:36:54.372Z,101061.19
2018-07-10T10:38:59.410Z,101052.65
2018-07-10T10:41:05.182Z,101055.12
2018-07-10T10:43:12.641Z,101016.63
2018-07-10T10:45:18.376Z,101055.55
2018-07-10T10:47:25.005Z,101056.05
2018-07-10T10:49:31.056Z,101067.55
2018-07-10T10:51:36.020Z,101054.83
2018-07-10T10:53:41.381Z,101055.41
2018-07-10T10:55:46.349Z,101043.50
2018-07-10T10:57:51.371Z,101038.28
2018-07-10T10:59:56.500Z,101051.17
2018-07-10T11:02:01.511Z,101042.67
2018-07-10T11:04:06.527Z,101055.51
2018-07-10T11:06:12.242Z,101044.52
2018-07-10T11:08:17.821Z,101034.06
2018-07-10T11:10:24.506Z,101045.65
2018-07-10T11:12:31.238Z,101029.33
2018-07-10T11:14:36.315Z,101038.72
2018-07-10T11:16:41.993Z,101021.85
2018-07-10T11:19:17.154Z,101034.97
2018-07-10T11:21:53.598Z,101015.65
2018-07-10T11:23:59.338Z,101014.23
2018-07-10T11:26:12.410Z,101022.05
2018-07-10T11:28:18.703Z,101014.49
2018-07-10T11:30:23.946Z,101015.73
2018-07-10T11:32:28.953Z,101012.80
2018-07-10T11:34:33.830Z,101013.56
2018-07-10T11:36:38.757Z,101011.20
2018-07-10T11:38:43.805Z,100851.75
2018-07-10T11:40:48.896Z,101019.91
2018-07-10T11:42:53.781Z,101018.08
2018-07-10T11:44:59.019Z,101002.89
2018-07-10T11:47:04.031Z,101019.83
2018-07-10T11:49:09.098Z,101020.87
2018-07-10T11:51:14.028Z,101002.66
2018-07-10T11:53:18.941Z,101016.48
2018-07-10T11:55:23.912Z,101012.23
2018-07-10T11:57:28.768Z,100980.13
2018-07-10T11:59:33.807Z,100989.71
2018-07-10T12:01:38.818Z,101009.45
2018-07-10T12:03:43.613Z,100932.77
2018-07-10T12:05:48.635Z,101018.52
2018-07-10T12:07:56.378Z,101029.86
2018-07-10T12:10:18.559Z,101006.54
2018-07-10T12:12:23.597Z,101020.52
2018-07-10T12:14:28.483Z,101018.39
2018-07-10T12:16:33.417Z,101022.02
2018-07-10T12:18:38.349Z,101028.45
2018-07-10T12:20:43.357Z,101039.12
2018-07-10T12:22:48.179Z,101026.91
2018-07-10T12:26:54.912Z,101026.97
2018-07-10T12:29:00.134Z,101041.89
2018-07-10T12:31:05.467Z,101025.67
2018-07-10T12:33:10.553Z,101032.94
2018-07-10T12:35:15.729Z,101028.43
2018-07-10T12:37:20.774Z,100859.70
2018-07-10T12:39:25.640Z,101031.09
2018-07-10T12:41:30.712Z,101016.86
2018-07-10T12:43:35.958Z,100836.16
2018-07-10T12:45:40.887Z,100994.09
2018-07-10T12:47:45.897Z,100989.68
2018-07-10T12:49:50.763Z,100988.34
2018-07-10T12:51:55.762Z,100983.92
2018-07-10T12:54:00.695Z,100926.95
2018-07-10T12:56:05.674Z,100975.96
2018-07-10T12:58:11.066Z,100976.09
2018-07-10T13:00:16.372Z,100971.16
2018-07-10T13:02:21.953Z,100973.67
2018-07-10T13:04:27.497Z,100970.08
2018-07-10T13:06:32.351Z,100978.15
2018-07-10T13:08:37.218Z,100977.75
2018-07-10T13:10:42.298Z,100953.92
2018-07-10T13:12:47.490Z,100969.63
2018-07-10T13:14:52.421Z,100970.14
2018-07-10T13:16:57.529Z,100952.66
2018-07-10T13:19:02.398Z,100959.77
2018-07-10T13:21:07.740Z,100949.42
2018-07-10T13:23:12.659Z,100945.64
2018-07-10T13:25:17.584Z,100946.84
2018-07-10T13:27:22.584Z,100938.55
2018-07-10T13:29:27.477Z,100937.61
2018-07-10T13:31:32.391Z,100931.79
2018-07-10T13:33:37.319Z,100943.56
2018-07-10T13:35:42.385Z,100933.94
2018-07-10T13:40:27.498Z,100926.66
2018-07-10T13:42:59.361Z,100930.78
2018-07-10T13:45:04.442Z,100925.98
2018-07-10T13:47:10.219Z,100920.02
2018-07-10T13:49:15.109Z,100935.16
2018-07-10T13:51:20.083Z,100860.87
2018-07-10T13:53:29.448Z,100925.11
2018-07-10T13:55:34.476Z,100921.08
2018-07-10T13:57:41.641Z,100920.74
2018-07-10T13:59:46.659Z,100909.45
2018-07-10T14:01:52.399Z,100908.44
2018-07-10T14:03:58.346Z,100903.52
2018-07-10T14:06:05.510Z,100909.34
2018-07-10T14:08:11.498Z,100890.22
2018-07-10T14:10:16.656Z,100902.86
2018-07-10T14:12:22.503Z,100909.64
2018-07-10T14:14:27.394Z,100903.35
2018-07-10T14:16:32.181Z,100889.44
2018-07-10T14:18:37.059Z,100880.84
2018-07-10T14:20:54.390Z,100805.58
2018-07-10T14:22:59.902Z,100695.56
2018-07-10T14:25:05.207Z,100869.03
2018-07-10T14:27:10.273Z,100771.97
2018-07-10T14:29:15.417Z,100792.01
2018-07-10T14:31:20.565Z,100855.67
2018-07-10T14:33:25.871Z,100857.39
2018-07-10T14:35:30.757Z,100859.33
2018-07-10T14:37:35.979Z,100817.89
2018-07-10T14:39:41.575Z,100853.84
2018-07-10T14:41:46.678Z,100710.77
2018-07-10T14:43:52.711Z,100780.30
2018-07-10T14:46:03.617Z,100857.47
2018-07-10T14:48:09.904Z,100851.48
2018-07-10T14:50:15.694Z,100782.25
2018-07-10T14:52:21.608Z,100873.12
2018-07-10T14:54:27.063Z,100848.16
2018-07-10T14:56:31.990Z,100844.98
2018-07-10T14:58:37.288Z,100858.64
2018-07-10T15:00:42.607Z,100867.55
2018-07-10T15:02:48.347Z,100840.59
2018-07-10T15:04:54.060Z,100841.77
2018-07-10T15:06:59.792Z,100842.75
2018-07-10T15:09:06.301Z,100849.55
2018-07-10T15:11:12.866Z,100843.36
2018-07-10T15:13:18.231Z,100839.58
2018-07-10T15:15:24.225Z,100828.22
2018-07-10T15:17:34.201Z,100828.77
2018-07-10T15:19:39.427Z,100698.14
2018-07-10T15:21:45.338Z,100821.59
2018-07-10T15:23:50.224Z,100807.13
2018-07-10T15:25:55.774Z,100812.03
2018-07-10T15:28:00.674Z,100823.51
2018-07-10T15:30:06.533Z,100813.33
2018-07-10T15:32:11.475Z,100814.84
2018-07-10T15:34:16.575Z,100820.34
2018-07-10T15:36:21.878Z,100821.59
2018-07-10T15:38:27.470Z,100821.88
2018-07-10T15:40:33.216Z,100800.75
2018-07-10T15:42:38.773Z,100819.73
2018-07-10T15:44:44.221Z,100813.25
2018-07-10T15:46:49.931Z,100809.67
2018-07-10T15:48:55.045Z,100801.89
2018-07-10T15:51:00.570Z,100809.15
2018-07-10T15:53:06.783Z,100799.37
2018-07-10T15:55:11.809Z,100792.21
2018-07-10T15:57:17.253Z,100788.87
2018-07-10T15:59:22.456Z,100796.13
2018-07-10T16:01:28.621Z,100758.97
2018-07-10T16:03:33.726Z,100788.45
2018-07-10T16:05:38.614Z,100781.84
2018-07-10T16:07:43.816Z,100791.71
2018-07-10T16:09:49.044Z,100784.65
2018-07-10T16:12:04.469Z,100787.48
2018-07-10T16:14:09.529Z,100782.22
2018-07-10T16:16:19.874Z,100733.24
2018-07-10T16:18:26.604Z,100788.06
2018-07-10T16:20:34.335Z,100773.03
2018-07-10T16:22:41.424Z,100773.59
2018-07-10T16:24:51.101Z,100765.19
2018-07-10T16:26:56.190Z,100767.33
2018-07-10T16:29:02.107Z,100770.52
2018-07-10T16:31:07.302Z,100758.05
2018-07-10T16:33:17.679Z,100753.34
2018-07-10T16:35:30.689Z,100740.86
2018-07-10T16:37:35.725Z,100715.35
2018-07-10T16:39:41.263Z,100709.40
2018-07-10T16:41:51.286Z,100710.98
2018-07-10T16:43:57.549Z,100726.20
2018-07-10T16:46:04.287Z,100724.38
2018-07-10T16:49:17.452Z,100731.76
2018-07-10T16:51:29.131Z,100740.21
2018-07-10T16:53:37.718Z,100718.17
2018-07-10T16:55:42.754Z,100724.77
2018-07-10T16:57:47.946Z,100744.41
2018-07-10T16:59:52.959Z,100745.83
2018-07-10T17:01:58.244Z,100744.85
2018-07-10T17:04:04.691Z,100746.22
2018-07-10T17:06:09.726Z,100746.61
2018-07-10T17:08:14.604Z,100744.48
2018-07-10T17:10:19.648Z,100745.10
2018-07-10T17:12:24.695Z,100719.29
2018-07-10T17:14:30.058Z,100735.50
2018-07-10T17:16:35.231Z,100739.83
2018-07-10T17:18:40.077Z,100735.34
2018-07-10T17:20:45.355Z,100572.16
2018-07-10T17:22:50.566Z,100734.00
2018-07-10T17:24:57.088Z,100731.80
2018-07-10T17:27:02.385Z,100734.36
2018-07-10T17:29:12.771Z,100730.15
2018-07-10T17:31:18.125Z,100747.42
2018-07-10T17:33:23.942Z,100760.91
2018-07-10T17:35:29.774Z,100731.70
2018-07-10T17:37:47.391Z,100747.58
2018-07-10T17:39:54.515Z,100735.74
2018-07-10T17:41:59.596Z,100735.85
2018-07-10T17:44:07.487Z,100651.26
2018-07-10T17:46:16.504Z,100775.36
2018-07-10T17:48:22.041Z,100777.23
2018-07-10T17:50:27.528Z,100764.29
2018-07-10T17:52:34.649Z,100790.93
2018-07-10T17:54:41.586Z,100787.25
2018-07-10T17:56:47.199Z,100788.09
2018-07-10T17:58:52.525Z,100796.86
2018-07-10T18:00:57.584Z,100794.95
2018-07-10T18:03:03.044Z,100797.79
2018-07-10T18:05:08.363Z,100782.48
2018-07-10T18:07:14.309Z,100796.77
2018-07-10T18:09:19.244Z,100796.75
2018-07-10T18:11:25.249Z,100801.77
2018-07-10T18:13:30.470Z,100775.04
2018-07-10T18:15:36.767Z,100806.92
2018-07-10T18:17:42.665Z,100804.84
2018-07-10T18:19:48.705Z,100807.47
2018-07-10T18:21:54.160Z,100696.38
2018-07-10T18:23:59.969Z,100805.84
2018-07-10T18:26:06.067Z,100684.96
2018-07-10T18:28:11.360Z,100771.50
2018-07-10T18:30:16.612Z,100810.09
2018-07-10T18:32:21.928Z,100783.90
2018-07-10T18:34:27.241Z,100814.66
2018-07-10T18:36:32.888Z,100804.61
2018-07-10T18:38:38.918Z,100812.24
2018-07-10T18:40:45.372Z,100817.34
2018-07-10T18:42:51.026Z,100818.78
2018-07-10T18:44:57.813Z,100823.63
2018-07-10T18:47:03.889Z,100827.91
2018-07-10T18:49:09.242Z,100801.03
2018-07-10T18:51:15.355Z,100835.00
2018-07-10T18:53:24.335Z,100834.15
2018-07-10T18:55:31.086Z,100835.62
2018-07-10T18:59:54.489Z,100845.28
2018-07-10T19:02:06.018Z,100836.14
2018-07-10T19:04:11.406Z,100851.30
2018-07-10T19:06:21.035Z,100844.30
2018-07-10T19:08:28.158Z,100843.36
2018-07-10T19:10:34.663Z,100845.84
2018-07-10T19:12:40.734Z,100845.05
2018-07-10T19:14:46.652Z,100846.72
2018-07-10T19:16:55.597Z,100850.78
2018-07-10T19:19:05.369Z,100706.00
2018-07-10T19:21:29.408Z,100859.50
2018-07-10T19:23:52.750Z,100752.10
2018-07-10T19:25:58.124Z,100856.56
2018-07-10T19:28:05.451Z,100770.55
2018-07-10T19:30:12.603Z,100858.62
2018-07-10T19:32:20.126Z,100857.30
2018-07-10T19:34:25.910Z,100864.45
2018-07-10T19:36:40.787Z,100863.67
2018-07-10T19:38:46.257Z,100868.20
2018-07-10T19:40:51.541Z,100865.06
2018-07-10T19:42:57.426Z,100863.83
2018-07-10T19:45:07.686Z,100770.12
2018-07-10T19:47:13.180Z,100873.96
2018-07-10T19:49:20.223Z,100610.77
2018-07-10T19:51:28.536Z,100878.19
2018-07-10T19:53:33.882Z,100873.75
2018-07-10T19:55:42.037Z,100735.16
2018-07-10T19:58:52.522Z,100885.63
2018-07-10T20:01:08.840Z,100883.83
2018-07-10T20:03:38.533Z,100889.31
2018-07-10T20:05:44.870Z,100815.33
2018-07-10T20:08:01.189Z,100880.84
2018-07-10T20:10:25.744Z,100898.91
2018-07-10T20:12:39.977Z,100774.25
2018-07-10T20:16:12.522Z,100918.36
2018-07-10T20:18:35.898Z,100903.77
2018-07-10T20:20:58.115Z,100909.48
2018-07-10T20:24:07.998Z,100915.45
2018-07-10T20:28:41.184Z,100925.31
2018-07-10T20:30:57.721Z,100931.66
2018-07-10T20:33:17.601Z,100823.06
2018-07-10T20:35:30.711Z,100934.73
2018-07-10T20:37:41.227Z,100932.00
2018-07-10T20:39:47.304Z,100931.27
2018-07-10T20:41:53.761Z,100931.17
2018-07-10T20:43:59.154Z,100648.54
2018-07-10T20:46:06.874Z,100877.76
2018-07-10T20:48:39.393Z,100941.45
2018-07-10T20:50:55.281Z,100946.38
2018-07-10T20:55:15.667Z,100946.97
2018-07-10T20:58:06.489Z,100951.33
2018-07-10T21:00:13.925Z,100953.03
2018-07-10T21:02:49.980Z,100956.66
2018-07-10T21:05:07.167Z,100957.72
2018-07-10T21:07:40.537Z,100968.08
2018-07-10T21:09:59.593Z,100962.12
2018-07-10T21:12:13.340Z,100963.83
2018-07-10T21:14:36.801Z,100966.71
2018-07-10T21:16:58.820Z,100973.14
2018-07-10T21:19:20.873Z,100968.72
2018-07-10T21:21:45.742Z,100916.56
2018-07-10T21:24:09.223Z,100966.67
2018-07-10T21:27:04.618Z,100967.73
2018-07-10T21:29:38.791Z,100971.02
2018-07-10T21:34:01.650Z,100982.49
2018-07-10T21:36:17.341Z,100977.24
2018-07-10T21:40:40.615Z,100976.73
2018-07-10T21:43:02.069Z,100977.73
2018-07-10T21:46:32.380Z,100812.59
2018-07-10T21:50:51.825Z,100974.59
2018-07-10T21:52:56.737Z,100979.28
2018-07-10T21:55:01.745Z,100962.41
2018-07-10T21:57:08.694Z,100982.16
2018-07-10T21:59:15.388Z,100986.75
2018-07-10T22:01:46.590Z,100985.45
2018-07-10T22:03:51.562Z,100981.63
2018-07-10T22:05:56.489Z,100989.91
2018-07-10T22:08:01.371Z,100972.66
2018-07-10T22:10:08.325Z,100991.77
2018-07-10T22:12:18.089Z,100995.00
2018-07-10T22:14:23.190Z,100995.92
2018-07-10T22:16:27.995Z,100992.00
2018-07-10T22:18:32.863Z,100981.06
2018-07-10T22:20:37.858Z,100989.27
2018-07-10T22:22:42.938Z,100987.95
2018-07-10T22:24:49.590Z,100987.44
2018-07-10T22:26:57.224Z,100989.11
2018-07-10T22:29:02.740Z,100965.67
2018-07-10T22:31:12.776Z,100987.73
2018-07-10T22:33:17.659Z,100995.25
2018-07-10T22:35:22.974Z,100991.38
2018-07-10T22:37:27.967Z,100967.10
2018-07-10T22:39:33.656Z,100943.71
2018-07-10T22:41:39.923Z,100992.84
2018-07-10T22:43:45.102Z,100947.14
2018-07-10T22:45:49.990Z,100991.59
2018-07-10T22:47:55.122Z,100990.91
2018-07-10T22:50:05.843Z,100972.50
2018-07-10T22:52:10.821Z,100949.48
2018-07-10T22:54:15.852Z,100863.09
2018-07-10T22:56:20.786Z,100995.59
2018-07-10T22:58:25.683Z,100989.08
2018-07-10T23:00:39.353Z,100994.76
2018-07-10T23:02:46.541Z,100992.73
2018-07-10T23:04:51.530Z,101004.52
2018-07-10T23:06:56.481Z,100993.45
2018-07-10T23:09:01.798Z,100918.26
2018-07-10T23:11:08.556Z,101008.52
2018-07-10T23:13:13.584Z,100997.64
2018-07-10T23:15:18.476Z,101005.76
2018-07-10T23:17:23.548Z,101005.48
2018-07-10T23:19:29.412Z,100976.94
2018-07-10T23:21:35.202Z,101003.49
2018-07-10T23:23:39.955Z,101010.19
2018-07-10T23:25:45.476Z,101013.48
2018-07-10T23:27:50.886Z,101010.25
2018-07-10T23:29:55.981Z,101014.89
2018-07-10T23:32:01.672Z,101006.08
2018-07-10T23:34:19.393Z,100990.11
2018-07-10T23:36:24.290Z,100905.34
2018-07-10T23:38:48.615Z,101004.92
2018-07-10T23:40:54.883Z,100998.91
2018-07-10T23:43:00.090Z,100992.98
2018-07-10T23:45:14.897Z,100991.81
2018-07-10T23:47:29.034Z,100992.81
2018-07-10T23:49:33.975Z,100996.41
2018-07-10T23:51:55.165Z,101000.67
2018-07-10T23:54:00.673Z,100706.75
2018-07-10T23:56:06.097Z,100993.26
2018-07-10T23:58:10.875Z,100978.36
